createdAt,value
2023-01-28T00:01:22.646Z,8.93
2023-01-28T00:03:53.594Z,8.80
2023-01-28T00:06:20.711Z,8.50
2023-01-28T00:08:47.763Z,8.98
2023-01-28T00:11:14.989Z,9.38
2023-01-28T00:13:42.368Z,10.18
2023-01-28T00:16:10.001Z,8.75
2023-01-28T00:18:37.585Z,9.93
2023-01-28T00:21:06.320Z,9.65
2023-01-28T00:23:34.827Z,9.38
2023-01-28T00:26:02.916Z,9.65
2023-01-28T00:28:29.951Z,8.23
2023-01-28T00:30:57.132Z,8.90
2023-01-28T00:33:24.387Z,9.73
2023-01-28T00:36:01.211Z,9.18
2023-01-28T00:38:28.692Z,10.80
2023-01-28T00:40:55.711Z,8.85
2023-01-28T00:43:22.839Z,11.18
2023-01-28T00:45:50.384Z,9.57
2023-01-28T00:48:17.573Z,9.70
2023-01-28T00:50:45.643Z,9.93
2023-01-28T00:53:12.696Z,9.85
2023-01-28T00:55:39.749Z,9.20
2023-01-28T00:58:06.781Z,9.43
2023-01-28T01:00:33.810Z,9.98
2023-01-28T01:03:01.145Z,9.20
2023-01-28T01:05:29.578Z,11.38
2023-01-28T01:07:56.674Z,13.40
2023-01-28T01:10:23.774Z,9.73
2023-01-28T01:12:50.814Z,9.82
2023-01-28T01:15:18.659Z,10.98
2023-01-28T01:17:47.500Z,11.13
2023-01-28T01:20:19.418Z,10.25
2023-01-28T01:22:46.452Z,10.65
2023-01-28T01:25:14.808Z,11.48
2023-01-28T01:27:42.360Z,10.02
2023-01-28T01:30:10.275Z,9.90
2023-01-28T01:32:37.300Z,11.15
2023-01-28T01:35:08.046Z,11.90
2023-01-28T01:37:38.282Z,10.52
2023-01-28T01:40:05.795Z,10.43
2023-01-28T01:42:34.085Z,11.05
2023-01-28T01:45:02.951Z,12.00
2023-01-28T01:47:48.551Z,10.43
2023-01-28T01:50:21.430Z,10.82
2023-01-28T01:52:51.705Z,10.70
2023-01-28T01:55:20.748Z,10.38
2023-01-28T01:57:49.417Z,12.10
2023-01-28T02:00:16.793Z,10.00
2023-01-28T02:02:46.104Z,9.20
2023-01-28T02:05:14.436Z,9.75
2023-01-28T02:07:42.235Z,11.70
2023-01-28T02:10:10.081Z,10.45
2023-01-28T02:12:37.987Z,11.90
2023-01-28T02:15:07.150Z,9.60
2023-01-28T02:17:34.659Z,9.95
2023-01-28T02:20:03.570Z,12.65
2023-01-28T02:22:36.726Z,10.48
2023-01-28T02:25:18.098Z,10.82
2023-01-28T02:27:51.152Z,10.30
2023-01-28T02:30:30.866Z,13.75
2023-01-28T02:33:00.516Z,11.13
2023-01-28T02:35:47.758Z,11.10
2023-01-28T02:38:22.529Z,12.20
2023-01-28T02:41:05.834Z,13.32
2023-01-28T02:43:46.315Z,13.30
2023-01-28T02:46:35.094Z,11.13
2023-01-28T02:49:02.972Z,11.98
2023-01-28T02:51:34.709Z,11.60
2023-01-28T02:54:10.904Z,11.05
2023-01-28T02:56:43.776Z,14.32
2023-01-28T02:59:31.340Z,13.63
2023-01-28T03:02:02.903Z,13.70
2023-01-28T03:04:33.164Z,11.80
2023-01-28T03:07:04.223Z,13.43
2023-01-28T03:09:31.494Z,16.38
2023-01-28T03:12:20.062Z,11.75
2023-01-28T03:15:08.722Z,13.80
2023-01-28T03:18:01.709Z,14.32
2023-01-28T03:20:48.684Z,14.30
2023-01-28T03:23:40.195Z,13.13
2023-01-28T03:26:27.037Z,13.27
2023-01-28T03:29:14.461Z,16.30
2023-01-28T03:32:00.389Z,13.70
2023-01-28T03:34:46.273Z,12.82
2023-01-28T03:37:15.069Z,14.00
2023-01-28T03:39:42.103Z,13.88
2023-01-28T03:42:10.526Z,13.68
2023-01-28T03:44:52.843Z,13.88
2023-01-28T03:47:27.352Z,19.65
2023-01-28T03:49:55.452Z,14.30
2023-01-28T03:52:25.532Z,12.43
2023-01-28T03:54:53.019Z,12.35
2023-01-28T03:57:24.707Z,11.85
2023-01-28T03:59:52.749Z,12.57
2023-01-28T04:02:20.727Z,11.68
2023-01-28T04:04:47.756Z,12.65
2023-01-28T04:07:15.461Z,11.82
2023-01-28T04:09:43.151Z,13.77
2023-01-28T04:12:10.881Z,11.98
2023-01-28T04:14:39.999Z,12.32
2023-01-28T04:17:10.508Z,12.07
2023-01-28T04:19:37.809Z,10.95
2023-01-28T04:22:08.939Z,11.23
2023-01-28T04:24:35.986Z,13.25
2023-01-28T04:27:03.052Z,15.32
2023-01-28T04:29:30.046Z,10.80
2023-01-28T04:31:57.124Z,11.32
2023-01-28T04:34:24.243Z,11.00
2023-01-28T04:36:51.245Z,11.00
2023-01-28T04:39:18.425Z,10.40
2023-01-28T04:41:45.442Z,12.23
2023-01-28T04:44:13.696Z,11.10
2023-01-28T04:46:40.792Z,11.30
2023-01-28T04:49:07.865Z,10.70
2023-01-28T04:51:34.943Z,10.18
2023-01-28T04:54:01.971Z,9.80
2023-01-28T04:56:29.005Z,9.95
2023-01-28T04:58:56.045Z,11.23
2023-01-28T05:01:23.539Z,10.32
2023-01-28T05:03:50.527Z,8.88
2023-01-28T05:06:17.564Z,10.25
2023-01-28T05:08:46.236Z,10.18
2023-01-28T05:11:13.515Z,15.70
2023-01-28T05:13:40.520Z,8.80
2023-01-28T05:16:08.008Z,10.43
2023-01-28T05:18:35.057Z,9.38
2023-01-28T05:21:02.110Z,9.80
2023-01-28T05:23:29.124Z,9.75
2023-01-28T05:25:56.208Z,14.88
2023-01-28T05:28:23.259Z,9.77
2023-01-28T05:30:50.404Z,9.25
2023-01-28T05:33:17.542Z,12.73
2023-01-28T05:35:44.537Z,11.40
2023-01-28T05:38:13.639Z,9.18
2023-01-28T05:40:41.933Z,7.93
2023-01-28T05:43:08.957Z,8.70
2023-01-28T05:45:36.009Z,9.55
2023-01-28T05:48:03.069Z,7.85
2023-01-28T05:50:30.105Z,8.95
2023-01-28T05:52:57.143Z,10.18
2023-01-28T05:55:24.284Z,9.00
2023-01-28T05:57:51.915Z,8.63
2023-01-28T06:00:19.184Z,9.43
2023-01-28T06:02:46.229Z,7.40
2023-01-28T06:05:13.395Z,7.90
2023-01-28T06:07:40.477Z,7.90
2023-01-28T06:10:07.751Z,7.53
2023-01-28T06:12:34.842Z,9.07
2023-01-28T06:15:01.852Z,10.15
2023-01-28T06:17:28.908Z,7.05
2023-01-28T06:19:55.955Z,7.38
2023-01-28T06:22:23.170Z,8.52
2023-01-28T06:24:50.165Z,7.10
2023-01-28T06:27:17.179Z,8.73
2023-01-28T06:29:44.203Z,6.50
2023-01-28T06:32:11.420Z,8.18
2023-01-28T06:34:39.045Z,10.05
2023-01-28T06:37:06.071Z,9.60
2023-01-28T06:39:33.221Z,7.18
2023-01-28T06:42:00.819Z,8.05
2023-01-28T06:44:27.853Z,7.20
2023-01-28T06:46:54.887Z,9.98
2023-01-28T06:49:22.125Z,9.10
2023-01-28T06:51:49.219Z,7.63
2023-01-28T06:54:16.508Z,9.25
2023-01-28T06:56:44.142Z,7.20
2023-01-28T06:59:11.167Z,7.70
2023-01-28T07:01:38.241Z,8.90
2023-01-28T07:04:05.399Z,7.72
2023-01-28T07:06:32.443Z,8.95
2023-01-28T07:08:59.440Z,8.15
2023-01-28T07:11:26.467Z,8.10
2023-01-28T07:13:53.605Z,8.48
2023-01-28T07:16:20.606Z,7.72
2023-01-28T07:18:47.627Z,8.68
2023-01-28T07:21:14.622Z,8.68
2023-01-28T07:23:41.747Z,7.93
2023-01-28T07:26:08.794Z,7.72
2023-01-28T07:28:35.805Z,8.05
2023-01-28T07:31:03.066Z,7.75
2023-01-28T07:33:30.205Z,9.40
2023-01-28T07:35:57.245Z,9.27
2023-01-28T07:38:24.248Z,8.25
2023-01-28T07:40:51.313Z,7.60
2023-01-28T07:43:18.327Z,11.95
2023-01-28T07:45:48.506Z,7.70
2023-01-28T07:48:15.686Z,8.30
2023-01-28T07:50:42.964Z,9.18
2023-01-28T07:53:11.139Z,8.25
2023-01-28T07:55:38.537Z,8.00
2023-01-28T07:58:08.258Z,12.98
2023-01-28T08:00:36.521Z,8.00
2023-01-28T08:03:05.229Z,16.75
2023-01-28T08:05:39.323Z,11.55
2023-01-28T08:08:06.560Z,10.50
2023-01-28T08:10:33.705Z,10.13
2023-01-28T08:13:00.777Z,9.32
2023-01-28T08:15:28.137Z,8.30
2023-01-28T08:17:55.936Z,7.40
2023-01-28T08:20:23.496Z,8.68
2023-01-28T08:22:50.527Z,8.73
2023-01-28T08:25:18.585Z,8.65
2023-01-28T08:27:45.658Z,9.48
2023-01-28T08:30:13.204Z,9.20
2023-01-28T08:32:40.673Z,8.38
2023-01-28T08:35:07.837Z,10.45
2023-01-28T08:37:34.909Z,11.48
2023-01-28T08:40:01.967Z,16.67
2023-01-28T08:42:28.983Z,55.75
2023-01-28T08:44:56.038Z,20.05
2023-01-28T08:47:23.057Z,11.50
2023-01-28T08:49:50.057Z,10.50
2023-01-28T08:52:17.067Z,15.20
2023-01-28T08:54:44.127Z,11.00
2023-01-28T08:57:11.139Z,11.57
2023-01-28T08:59:44.775Z,9.77
2023-01-28T09:02:30.354Z,11.63
2023-01-28T09:04:58.192Z,11.05
2023-01-28T09:07:25.234Z,8.60
2023-01-28T09:09:52.243Z,10.65
2023-01-28T09:12:19.275Z,9.13
2023-01-28T09:14:46.295Z,10.13
2023-01-28T09:17:13.364Z,8.88
2023-01-28T09:19:40.374Z,10.75
2023-01-28T09:22:07.405Z,9.27
2023-01-28T09:24:34.427Z,8.95
2023-01-28T09:27:01.459Z,8.65
2023-01-28T09:29:28.490Z,8.90
2023-01-28T09:31:55.851Z,10.93
2023-01-28T09:34:22.897Z,9.88
2023-01-28T09:36:49.911Z,26.67
2023-01-28T09:39:16.926Z,18.92
2023-01-28T09:41:49.616Z,13.00
2023-01-28T09:44:51.789Z,10.45
2023-01-28T09:47:23.232Z,9.90
2023-01-28T09:49:51.747Z,8.43
2023-01-28T09:52:19.750Z,8.50
2023-01-28T09:54:49.887Z,7.95
2023-01-28T09:57:27.151Z,8.50
2023-01-28T09:59:54.213Z,9.20
2023-01-28T10:02:26.035Z,8.43
2023-01-28T10:05:16.989Z,8.98
2023-01-28T10:08:17.055Z,8.30
2023-01-28T10:10:47.789Z,9.43
2023-01-28T10:13:37.825Z,8.32
2023-01-28T10:16:10.770Z,8.30
2023-01-28T10:18:47.232Z,8.50
2023-01-28T10:21:20.350Z,8.30
2023-01-28T10:23:52.284Z,9.68
2023-01-28T10:26:24.244Z,8.85
2023-01-28T10:28:54.991Z,8.88
2023-01-28T10:31:22.693Z,9.10
2023-01-28T10:33:49.715Z,8.75
2023-01-28T10:36:18.204Z,8.70
2023-01-28T10:38:45.631Z,8.43
2023-01-28T10:41:13.835Z,8.82
2023-01-28T10:43:42.372Z,11.50
2023-01-28T10:46:27.740Z,8.00
2023-01-28T10:48:57.683Z,9.00
2023-01-28T10:51:31.714Z,14.95
2023-01-28T10:53:58.878Z,17.10
2023-01-28T10:56:27.703Z,9.48
2023-01-28T10:58:54.773Z,36.22
2023-01-28T11:01:21.906Z,10.63
2023-01-28T11:03:56.329Z,11.55
2023-01-28T11:06:28.984Z,9.90
2023-01-28T11:08:56.111Z,8.90
2023-01-28T11:11:25.650Z,11.63
2023-01-28T11:13:58.484Z,10.60
2023-01-28T11:16:27.375Z,10.88
2023-01-28T11:18:55.561Z,11.48
2023-01-28T11:21:25.197Z,15.68
2023-01-28T11:24:19.786Z,9.82
2023-01-28T11:26:49.605Z,9.90
2023-01-28T11:29:24.787Z,10.02
2023-01-28T11:31:51.983Z,15.10
2023-01-28T11:34:20.280Z,16.00
2023-01-28T11:36:52.054Z,10.63
2023-01-28T11:39:21.963Z,9.65
2023-01-28T11:41:49.076Z,9.85
2023-01-28T11:44:26.870Z,9.40
2023-01-28T11:46:59.031Z,10.15
2023-01-28T11:49:29.010Z,9.15
2023-01-28T11:52:00.641Z,8.80
2023-01-28T11:54:33.775Z,12.75
2023-01-28T11:57:03.797Z,10.20
2023-01-28T11:59:49.839Z,9.07
2023-01-28T12:02:39.911Z,10.95
2023-01-28T12:05:20.450Z,9.85
2023-01-28T12:07:57.298Z,9.75
2023-01-28T12:10:39.672Z,8.70
2023-01-28T12:13:08.959Z,9.48
2023-01-28T12:15:50.054Z,10.05
2023-01-28T12:18:35.853Z,13.70
2023-01-28T12:21:10.555Z,9.73
2023-01-28T12:23:37.620Z,8.95
2023-01-28T12:26:04.660Z,8.70
2023-01-28T12:28:32.808Z,10.55
2023-01-28T12:31:12.427Z,10.77
2023-01-28T12:33:46.489Z,11.35
2023-01-28T12:36:19.362Z,8.90
2023-01-28T12:39:05.154Z,13.38
2023-01-28T12:41:36.469Z,10.70
2023-01-28T12:44:10.146Z,10.85
2023-01-28T12:46:40.397Z,10.07
2023-01-28T12:49:19.410Z,10.13
2023-01-28T12:52:09.713Z,9.88
2023-01-28T12:54:40.188Z,10.93
2023-01-28T12:57:08.999Z,11.00
2023-01-28T12:59:40.272Z,13.30
2023-01-28T13:02:17.112Z,11.40
2023-01-28T13:05:03.276Z,10.15
2023-01-28T13:07:36.070Z,12.02
2023-01-28T13:10:06.134Z,12.85
2023-01-28T13:12:34.053Z,12.27
2023-01-28T13:15:01.464Z,11.43
2023-01-28T13:17:29.718Z,13.65
2023-01-28T13:19:57.554Z,11.00
2023-01-28T13:22:29.447Z,10.82
2023-01-28T13:24:56.514Z,11.50
2023-01-28T13:27:27.631Z,10.93
2023-01-28T13:30:02.209Z,11.85
2023-01-28T13:32:31.495Z,11.10
2023-01-28T13:35:06.797Z,10.13
2023-01-28T13:37:41.073Z,10.75
2023-01-28T13:40:23.606Z,10.55
2023-01-28T13:42:59.924Z,10.82
2023-01-28T13:45:29.482Z,11.25
2023-01-28T13:48:01.926Z,13.07
2023-01-28T13:50:35.686Z,14.15
2023-01-28T13:53:16.752Z,15.02
2023-01-28T13:55:45.881Z,17.35
2023-01-28T13:58:25.599Z,11.40
2023-01-28T14:01:02.966Z,14.23
2023-01-28T14:03:36.272Z,16.15
2023-01-28T14:06:20.921Z,12.05
2023-01-28T14:09:06.271Z,12.15
2023-01-28T14:11:52.641Z,10.05
2023-01-28T14:14:19.766Z,10.70
2023-01-28T14:16:52.056Z,10.93
2023-01-28T14:19:20.754Z,10.88
2023-01-28T14:21:47.788Z,10.23
2023-01-28T14:24:17.187Z,10.50
2023-01-28T14:26:49.251Z,9.35
2023-01-28T14:29:35.251Z,11.57
2023-01-28T14:32:06.985Z,13.43
2023-01-28T14:34:35.779Z,15.55
2023-01-28T14:37:05.427Z,10.85
2023-01-28T14:39:34.061Z,9.63
2023-01-28T14:42:03.116Z,11.18
2023-01-28T14:44:34.783Z,9.90
2023-01-28T14:47:18.542Z,9.68
2023-01-28T14:50:00.938Z,11.32
2023-01-28T14:52:45.343Z,10.35
2023-01-28T14:55:30.647Z,12.57
2023-01-28T14:57:59.384Z,9.93
2023-01-28T15:00:27.939Z,11.35
2023-01-28T15:02:55.102Z,15.18
2023-01-28T15:05:27.222Z,13.35
2023-01-28T15:07:55.732Z,10.25
2023-01-28T15:10:30.547Z,11.00
2023-01-28T15:13:05.976Z,10.05
2023-01-28T15:15:40.921Z,13.43
2023-01-28T15:18:13.428Z,13.80
2023-01-28T15:20:44.533Z,11.18
2023-01-28T15:25:46.943Z,11.85
2023-01-28T15:28:18.138Z,11.32
2023-01-28T15:30:46.199Z,12.85
2023-01-28T15:33:17.116Z,11.70
2023-01-28T15:35:51.489Z,11.50
2023-01-28T15:38:18.754Z,11.73
2023-01-28T15:40:47.491Z,12.75
2023-01-28T15:43:41.433Z,10.40
2023-01-28T15:46:13.327Z,11.85
2023-01-28T15:48:43.101Z,10.32
2023-01-28T15:51:17.779Z,12.68
2023-01-28T15:53:45.887Z,12.43
2023-01-28T15:56:16.312Z,22.65
2023-01-28T15:58:43.478Z,18.25
2023-01-28T16:01:10.550Z,16.40
2023-01-28T16:03:41.054Z,14.50
2023-01-28T16:06:11.155Z,18.50
2023-01-28T16:08:41.504Z,14.70
2023-01-28T16:11:09.970Z,13.20
2023-01-28T16:13:41.222Z,12.98
2023-01-28T16:16:08.719Z,13.23
2023-01-28T16:18:47.289Z,13.60
2023-01-28T16:21:20.314Z,11.38
2023-01-28T16:24:04.965Z,15.55
2023-01-28T16:26:33.440Z,12.95
2023-01-28T16:29:14.790Z,16.15
2023-01-28T16:31:41.953Z,15.90
2023-01-28T16:34:11.584Z,12.85
2023-01-28T16:36:38.881Z,12.00
2023-01-28T16:39:05.925Z,12.35
2023-01-28T16:41:34.078Z,16.42
2023-01-28T16:44:05.471Z,19.63
2023-01-28T16:46:33.463Z,33.10
2023-01-28T16:49:00.661Z,28.33
2023-01-28T16:51:27.821Z,15.50
2023-01-28T16:53:55.571Z,21.63
2023-01-28T16:56:45.579Z,36.40
2023-01-28T16:59:14.769Z,30.70
2023-01-28T17:01:42.037Z,17.55
2023-01-28T17:04:12.121Z,18.08
2023-01-28T17:06:41.963Z,15.30
2023-01-28T17:09:09.200Z,15.35
2023-01-28T17:11:36.384Z,14.13
2023-01-28T17:14:03.667Z,12.55
2023-01-28T17:16:30.712Z,14.70
2023-01-28T17:18:57.789Z,15.63
2023-01-28T17:21:24.913Z,13.75
2023-01-28T17:23:51.931Z,14.13
2023-01-28T17:26:19.095Z,12.70
2023-01-28T17:28:46.142Z,13.38
2023-01-28T17:31:14.753Z,14.38
2023-01-28T17:33:42.576Z,12.60
2023-01-28T17:36:10.081Z,12.52
2023-01-28T17:38:37.108Z,12.60
2023-01-28T17:41:08.685Z,13.02
2023-01-28T17:43:35.975Z,13.43
2023-01-28T17:46:10.540Z,17.85
2023-01-28T17:49:58.939Z,16.27
2023-01-28T17:52:26.096Z,14.20
2023-01-28T17:54:53.128Z,12.10
2023-01-28T17:57:20.213Z,12.15
2023-01-28T17:59:47.286Z,15.48
2023-01-28T18:02:14.740Z,14.88
2023-01-28T18:04:42.355Z,12.70
2023-01-28T18:07:12.902Z,13.98
2023-01-28T18:09:45.883Z,13.30
2023-01-28T18:12:14.122Z,13.35
2023-01-28T18:14:41.870Z,13.25
2023-01-28T18:17:09.101Z,12.65
2023-01-28T18:19:36.178Z,14.23
2023-01-28T18:22:03.592Z,14.57
2023-01-28T18:24:31.105Z,13.43
2023-01-28T18:26:59.752Z,14.43
2023-01-28T18:29:27.792Z,14.02
2023-01-28T18:31:55.981Z,16.80
2023-01-28T18:34:23.844Z,16.40
2023-01-28T18:36:51.080Z,28.52
2023-01-28T18:39:18.838Z,22.08
2023-01-28T18:41:46.923Z,21.80
2023-01-28T18:44:14.901Z,22.90
2023-01-28T18:46:42.197Z,19.83
2023-01-28T18:49:09.283Z,21.48
2023-01-28T18:51:36.590Z,18.30
2023-01-28T18:54:04.638Z,17.35
2023-01-28T18:56:32.981Z,19.52
2023-01-28T18:59:00.988Z,17.95
2023-01-28T19:01:28.745Z,19.80
2023-01-28T19:03:57.048Z,21.63
2023-01-28T19:06:24.720Z,23.15
2023-01-28T19:08:56.229Z,17.98
2023-01-28T19:11:24.092Z,21.90
2023-01-28T19:13:51.223Z,24.63
2023-01-28T19:16:18.550Z,24.02
2023-01-28T19:18:50.982Z,23.08
2023-01-28T19:21:18.029Z,23.05
2023-01-28T19:23:50.124Z,23.15
2023-01-28T19:26:21.304Z,22.23
2023-01-28T19:28:51.928Z,23.10
2023-01-28T19:31:20.591Z,16.63
2023-01-28T19:33:48.552Z,15.82
2023-01-28T19:36:15.875Z,22.75
2023-01-28T19:38:43.130Z,16.73
2023-01-28T19:41:16.138Z,16.80
2023-01-28T19:43:43.267Z,16.92
2023-01-28T19:46:13.474Z,15.20
2023-01-28T19:48:40.560Z,14.23
2023-01-28T19:51:08.330Z,13.77
2023-01-28T19:53:35.885Z,17.58
2023-01-28T19:56:03.850Z,18.88
2023-01-28T19:58:34.617Z,17.00
2023-01-28T20:01:05.839Z,15.98
2023-01-28T20:03:32.966Z,18.55
2023-01-28T20:06:05.377Z,16.08
2023-01-28T20:08:32.518Z,14.80
2023-01-28T20:11:03.468Z,19.25
2023-01-28T20:13:31.073Z,18.77
2023-01-28T20:15:58.249Z,14.77
2023-01-28T20:18:26.083Z,14.00
2023-01-28T20:20:53.961Z,15.18
2023-01-28T20:23:21.278Z,16.23
2023-01-28T20:25:52.109Z,14.82
2023-01-28T20:28:19.387Z,16.55
2023-01-28T20:30:46.543Z,16.08
2023-01-28T20:33:13.772Z,16.83
2023-01-28T20:35:40.915Z,14.55
2023-01-28T20:38:08.026Z,18.60
2023-01-28T20:40:35.164Z,18.77
2023-01-28T20:43:02.225Z,17.80
2023-01-28T20:45:29.331Z,17.42
2023-01-28T20:47:56.349Z,13.63
2023-01-28T20:50:23.378Z,15.20
2023-01-28T20:52:50.464Z,15.55
2023-01-28T20:55:17.778Z,16.75
2023-01-28T20:57:45.115Z,16.55
2023-01-28T21:00:12.750Z,17.33
2023-01-28T21:02:43.304Z,16.05
2023-01-28T21:05:11.218Z,15.57
2023-01-28T21:07:38.389Z,18.38
2023-01-28T21:10:05.642Z,16.95
2023-01-28T21:12:32.702Z,17.52
2023-01-28T21:14:59.828Z,19.83
2023-01-28T21:17:26.956Z,16.77
2023-01-28T21:19:54.004Z,17.92
2023-01-28T21:22:21.228Z,15.77
2023-01-28T21:24:51.061Z,17.42
2023-01-28T21:27:19.169Z,16.88
2023-01-28T21:29:46.280Z,20.83
2023-01-28T21:32:13.534Z,22.83
2023-01-28T21:34:40.679Z,17.83
2023-01-28T21:37:07.699Z,18.63
2023-01-28T21:39:36.844Z,17.85
2023-01-28T21:42:03.919Z,21.90
2023-01-28T21:44:30.954Z,19.98
2023-01-28T21:46:58.000Z,40.45
2023-01-28T21:49:25.081Z,34.20
2023-01-28T21:51:52.085Z,22.40
2023-01-28T21:54:19.804Z,35.97
2023-01-28T21:56:48.023Z,32.75
2023-01-28T21:59:27.912Z,31.10
2023-01-28T22:02:02.307Z,26.98
2023-01-28T22:04:33.560Z,23.05
2023-01-28T22:07:01.096Z,21.02
2023-01-28T22:09:29.265Z,20.00
2023-01-28T22:11:56.640Z,22.30
2023-01-28T22:14:23.731Z,21.65
2023-01-28T22:16:50.861Z,24.77
2023-01-28T22:19:17.983Z,26.75
2023-01-28T22:21:46.928Z,25.38
2023-01-28T22:24:27.124Z,23.27
2023-01-28T22:26:54.807Z,23.67
2023-01-28T22:29:22.722Z,24.70
2023-01-28T22:31:50.542Z,27.20
2023-01-28T22:34:17.771Z,21.00
2023-01-28T22:36:44.845Z,21.55
2023-01-28T22:39:13.099Z,25.27
2023-01-28T22:41:40.910Z,21.88
2023-01-28T22:44:08.000Z,20.88
2023-01-28T22:46:35.271Z,18.52
2023-01-28T22:49:03.164Z,20.17
2023-01-28T22:51:31.553Z,21.25
2023-01-28T22:53:58.776Z,19.10
2023-01-28T22:56:26.812Z,19.52
2023-01-28T22:58:58.080Z,19.67
2023-01-28T23:01:25.648Z,22.05
2023-01-28T23:03:53.313Z,22.65
2023-01-28T23:06:22.232Z,25.38
2023-01-28T23:08:49.602Z,22.83
2023-01-28T23:11:24.979Z,20.98
2023-01-28T23:14:11.918Z,25.02
2023-01-28T23:16:57.855Z,21.80
2023-01-28T23:19:45.841Z,20.55
2023-01-28T23:22:32.362Z,21.27
2023-01-28T23:24:59.515Z,21.58
2023-01-28T23:27:26.710Z,21.40
2023-01-28T23:29:54.788Z,24.23
2023-01-28T23:32:22.719Z,22.80
2023-01-28T23:34:49.826Z,22.48
2023-01-28T23:37:17.173Z,22.48
2023-01-28T23:39:44.350Z,23.30
2023-01-28T23:42:18.391Z,22.25
2023-01-28T23:44:45.529Z,22.35
2023-01-28T23:47:12.862Z,22.92
2023-01-28T23:49:40.148Z,21.40
2023-01-28T23:52:07.947Z,27.38
2023-01-28T23:54:35.256Z,31.20
2023-01-28T23:57:02.552Z,25.33
2023-01-28T23:59:29.667Z,27.27
